Time;durP1;ratioP1;P1;durP2;ratioP2;P2;SDS_P1;SDS_P2;PMS_P1;PMS_P2;Temp;Humidity;BMP_temperature;BMP_pressure;BME280_temperature;BME280_humidity;BME280_pressure;Samples;Min_cycle;Max_cycle;Signal;HPM_P1;HPM_P2
2022/03/01 00:00:41;;;;;;;17.58;8.48;;;;;;;0.46;89.67;102827.03;5051978;28;20045;-54
2022/03/01 00:03:10;;;;;;;20.67;9.23;;;;;;;0.31;90.29;102820.00;5052220;28;20067;-54
2022/03/01 00:05:39;;;;;;;17.55;9.07;;;;;;;0.25;90.47;102818.22;5052149;28;20049;-48
2022/03/01 00:08:07;;;;;;;17.23;8.98;;;;;;;0.21;91.08;102813.88;5052569;28;20049;-45
2022/03/01 00:10:35;;;;;;;17.35;8.95;;;;;;;0.17;90.85;102809.50;5051948;28;20380;-45
2022/03/01 00:13:03;;;;;;;19.00;9.40;;;;;;;0.11;90.92;102802.56;5051767;28;20083;-44
2022/03/01 00:15:31;;;;;;;21.23;9.27;;;;;;;0.13;90.67;102802.56;5047911;28;20124;-44
2022/03/01 00:17:59;;;;;;;17.90;8.63;;;;;;;0.23;88.67;102801.81;5049007;28;20060;-54
2022/03/01 00:20:29;;;;;;;16.05;8.57;;;;;;;0.19;89.46;102807.78;5050361;28;20119;-55
2022/03/01 00:22:57;;;;;;;17.90;9.55;;;;;;;0.17;90.41;102804.34;5048269;28;20053;-48
2022/03/01 00:25:25;;;;;;;16.95;8.60;;;;;;;0.14;90.71;102810.34;5051022;28;20056;-55
2022/03/01 00:27:53;;;;;;;17.73;9.30;;;;;;;0.14;90.88;102810.34;5051812;28;20060;-47
2022/03/01 00:30:21;;;;;;;15.75;8.60;;;;;;;0.08;91.80;102812.91;5048598;28;20053;-55
2022/03/01 00:32:49;;;;;;;19.33;8.98;;;;;;;-0.01;92.33;102816.25;5046939;28;20064;-55
2022/03/01 00:35:18;;;;;;;18.65;9.25;;;;;;;-0.03;92.73;102817.06;5049582;28;20053;-54
2022/03/01 00:37:47;;;;;;;16.70;8.32;;;;;;;-0.04;92.79;102815.31;5051392;28;20073;-44
2022/03/01 00:40:15;;;;;;;19.40;9.43;;;;;;;-0.10;93.43;102816.13;5051497;28;20053;-44
2022/03/01 00:42:43;;;;;;;18.25;8.93;;;;;;;-0.20;93.50;102815.16;5052308;28;20045;-46
2022/03/01 00:45:12;;;;;;;15.10;8.35;;;;;;;-0.16;93.37;102816.09;5055163;28;20050;-44
2022/03/01 00:47:43;;;;;;;18.77;9.52;;;;;;;-0.19;93.76;102816.91;5055406;28;20400;-54
2022/03/01 00:50:11;;;;;;;18.40;9.93;;;;;;;-0.21;93.62;102817.75;5055594;28;20484;-46
2022/03/01 00:52:39;;;;;;;19.88;9.63;;;;;;;-0.21;93.51;102818.59;5055317;28;20052;-42
2022/03/01 00:55:09;;;;;;;18.13;9.27;;;;;;;-0.15;93.66;102816.94;5055076;28;20049;-53
2022/03/01 00:57:37;;;;;;;21.65;9.07;;;;;;;-0.19;93.80;102813.47;5055255;28;20048;-55
2022/03/01 01:00:09;;;;;;;20.55;10.82;;;;;;;-0.20;92.87;102820.34;5053282;28;20044;-45
2022/03/01 01:02:37;;;;;;;17.83;9.93;;;;;;;-0.21;93.00;102815.16;5051476;28;20061;-44
2022/03/01 01:05:08;;;;;;;18.45;8.95;;;;;;;-0.22;92.72;102821.16;5053836;28;20040;-43
2022/03/01 01:07:37;;;;;;;19.65;9.50;;;;;;;-0.29;92.90;102809.03;5054988;28;20044;-43
2022/03/01 01:10:06;;;;;;;18.65;9.57;;;;;;;-0.28;92.64;102801.28;5055101;28;20571;-43
2022/03/01 01:12:36;;;;;;;16.63;9.23;;;;;;;-0.27;92.83;102790.09;5054810;28;20103;-43
2022/03/01 01:15:06;;;;;;;17.58;9.75;;;;;;;-0.26;92.69;102796.13;5055204;28;20440;-53
2022/03/01 01:17:34;;;;;;;20.33;10.13;;;;;;;-0.26;93.43;102797.00;5054871;28;20053;-54
2022/03/01 01:20:03;;;;;;;19.55;9.45;;;;;;;-0.37;94.79;102802.06;5051617;28;20049;-42
2022/03/01 01:22:40;;;;;;;18.23;9.43;;;;;;;-0.38;94.70;102794.28;5050457;28;20057;-43
2022/03/01 01:25:10;;;;;;;19.23;8.43;;;;;;;-0.42;94.93;102784.75;5054658;28;20503;-53
2022/03/01 01:27:42;;;;;;;19.52;9.32;;;;;;;-0.42;94.31;102797.69;5054655;28;20048;-42
2022/03/01 01:30:12;;;;;;;18.67;9.73;;;;;;;-0.41;93.89;102795.13;5050368;28;20079;-54
2022/03/01 01:32:42;;;;;;;18.70;9.27;;;;;;;-0.36;93.51;102784.81;5050834;28;20143;-43
2022/03/01 01:35:12;;;;;;;17.52;9.38;;;;;;;-0.31;93.85;102788.31;5054499;28;20044;-44
2022/03/01 01:37:41;;;;;;;18.88;9.55;;;;;;;-0.29;95.45;102786.59;5054389;28;20048;-51
2022/03/01 01:40:12;;;;;;;17.70;9.27;;;;;;;-0.38;95.78;102797.72;5054432;28;20041;-51
2022/03/01 01:42:42;;;;;;;20.65;9.77;;;;;;;-0.40;95.62;102804.59;5053076;28;20057;-52
2022/03/01 01:45:11;;;;;;;20.77;10.23;;;;;;;-0.42;95.49;102805.44;5054584;28;20502;-53
2022/03/01 01:47:47;;;;;;;19.73;9.90;;;;;;;-0.39;95.25;102797.72;5054153;28;20049;-42
2022/03/01 01:50:17;;;;;;;19.35;10.02;;;;;;;-0.38;94.79;102800.31;5054248;28;20118;-55
2022/03/01 01:52:46;;;;;;;19.77;10.05;;;;;;;-0.34;95.14;102801.22;5054283;28;20044;-52
2022/03/01 01:55:15;;;;;;;24.33;10.68;;;;;;;-0.33;95.26;102791.75;5050450;28;20412;-53
2022/03/01 01:57:45;;;;;;;17.67;8.80;;;;;;;-0.36;95.88;102800.31;5051032;28;20052;-52
2022/03/01 02:00:14;;;;;;;18.70;10.23;;;;;;;-0.38;95.60;102809.81;5054084;28;20045;-52
2022/03/01 02:02:42;;;;;;;17.08;8.80;;;;;;;-0.36;96.01;102808.94;5053804;28;20053;-44
2022/03/01 02:05:12;;;;;;;19.13;9.10;;;;;;;-0.32;95.44;102807.28;5053745;28;20120;-50
2022/03/01 02:07:46;;;;;;;17.98;9.90;;;;;;;-0.31;95.05;102803.84;5054106;28;20431;-42
2022/03/01 02:10:14;;;;;;;19.30;9.43;;;;;;;-0.31;95.16;102805.53;5053894;28;20466;-51
2022/03/01 02:12:42;;;;;;;21.50;10.43;;;;;;;-0.32;95.40;102803.81;5053888;28;20049;-51
2022/03/01 02:15:12;;;;;;;23.23;11.25;;;;;;;-0.33;95.05;102791.75;5053811;28;20064;-43
2022/03/01 02:17:42;;;;;;;17.52;9.82;;;;;;;-0.32;95.16;102807.28;5051572;28;20048;-45
2022/03/01 02:20:15;;;;;;;20.08;9.95;;;;;;;-0.32;95.28;102803.81;5050437;28;20047;-53
2022/03/01 02:22:43;;;;;;;18.17;9.80;;;;;;;-0.32;95.06;102796.94;5053665;28;20503;-53
2022/03/01 02:25:12;;;;;;;20.67;10.25;;;;;;;-0.30;94.58;102800.41;5052595;28;20041;-55
2022/03/01 02:27:40;;;;;;;17.40;9.00;;;;;;;-0.34;94.81;102809.00;5050700;28;20049;-53
2022/03/01 02:30:10;;;;;;;19.02;9.65;;;;;;;-0.35;94.86;102804.66;5051665;28;20373;-43
2022/03/01 02:32:39;;;;;;;21.83;9.93;;;;;;;-0.34;94.41;102806.41;5050273;28;20045;-54
2022/03/01 02:35:09;;;;;;;20.05;10.18;;;;;;;-0.36;94.63;102796.00;5049423;28;20041;-42
2022/03/01 02:37:39;;;;;;;18.02;8.68;;;;;;;-0.38;95.20;102784.81;5053101;28;20076;-42
2022/03/01 02:40:08;;;;;;;20.45;9.73;;;;;;;-0.37;95.52;102794.31;5053230;28;20049;-44
2022/03/01 02:42:36;;;;;;;16.35;8.75;;;;;;;-0.38;96.79;102794.28;5053457;28;20448;-53
2022/03/01 02:45:06;;;;;;;17.83;9.43;;;;;;;-0.41;97.77;102794.22;5053004;28;20045;-45
2022/03/01 02:47:37;;;;;;;18.33;10.05;;;;;;;-0.45;97.13;102793.34;5052930;28;20049;-50
2022/03/01 02:50:08;;;;;;;19.67;9.55;;;;;;;-0.36;96.64;102793.44;5052963;28;20041;-43
2022/03/01 02:52:39;;;;;;;18.52;9.00;;;;;;;-0.39;96.08;102798.56;5052879;28;20049;-42
2022/03/01 02:55:09;;;;;;;20.73;9.98;;;;;;;-0.43;95.34;102798.53;5052764;28;20040;-53
2022/03/01 02:57:40;;;;;;;23.05;9.68;;;;;;;-0.43;95.55;102793.34;5052808;28;20049;-56
2022/03/01 03:00:10;;;;;;;17.95;9.35;;;;;;;-0.43;95.74;102793.34;5049194;28;20462;-44
2022/03/01 03:02:41;;;;;;;;;;;;;;;-0.42;95.96;102792.50;5050093;28;20041;-42
2022/03/01 03:05:09;;;;;;;21.05;9.20;;;;;;;-0.47;96.03;102787.28;5052463;28;19921;-54
2022/03/01 03:07:39;;;;;;;18.10;9.93;;;;;;;-0.51;96.59;102788.94;5050282;28;20059;-54
2022/03/01 03:10:07;;;;;;;18.05;9.75;;;;;;;-0.53;97.16;102793.25;5052564;28;20048;-56
2022/03/01 03:12:35;;;;;;;19.92;9.90;;;;;;;-0.53;97.47;102782.03;5051958;28;20081;-46
2022/03/01 03:15:05;;;;;;;19.23;9.48;;;;;;;-0.54;97.04;102781.16;5051958;28;20053;-45
2022/03/01 03:17:33;;;;;;;18.15;10.35;;;;;;;-0.53;97.14;102774.28;5052771;28;20053;-43
2022/03/01 03:20:01;;;;;;;17.98;9.38;;;;;;;-0.53;97.58;102775.16;5050435;28;20574;-43
2022/03/01 03:22:29;;;;;;;19.50;9.95;;;;;;;-0.57;99.04;102769.94;5047658;28;20057;-43
2022/03/01 03:24:58;;;;;;;19.88;9.48;;;;;;;-0.61;98.40;102770.75;5051401;28;20476;-47
2022/03/01 03:27:27;;;;;;;19.40;9.88;;;;;;;-0.56;98.56;102769.06;5052222;28;20519;-44
2022/03/01 03:29:55;;;;;;;20.13;9.93;;;;;;;-0.59;98.64;102769.88;5052304;28;20484;-53
2022/03/01 03:32:23;;;;;;;19.35;9.88;;;;;;;-0.54;98.36;102768.22;5052168;28;20055;-55
2022/03/01 03:34:51;;;;;;;19.48;9.82;;;;;;;-0.57;98.85;102762.19;5049333;28;20127;-53
2022/03/01 03:37:19;;;;;;;22.95;10.98;;;;;;;-0.57;99.25;102765.63;5049057;28;20098;-54
2022/03/01 03:39:47;;;;;;;20.55;10.15;;;;;;;-0.54;98.93;102765.66;5052598;28;20060;-55
2022/03/01 03:42:16;;;;;;;21.08;9.43;;;;;;;-0.54;98.90;102762.19;5051260;28;20053;-42
2022/03/01 03:44:45;;;;;;;18.33;9.30;;;;;;;-0.49;98.49;102759.66;5048420;28;20076;-43
2022/03/01 03:47:13;;;;;;;20.35;9.43;;;;;;;-0.52;99.48;102766.53;5049358;28;20131;-54
2022/03/01 03:49:42;;;;;;;20.50;10.57;;;;;;;-0.47;99.96;102769.19;5049968;28;20049;-54
2022/03/01 03:52:10;;;;;;;21.13;9.57;;;;;;;-0.49;100.00;102768.31;5047706;28;20060;-45
2022/03/01 03:54:38;;;;;;;19.13;10.30;;;;;;;-0.45;100.00;102774.34;5051948;28;20053;-45
2022/03/01 03:57:08;;;;;;;18.52;10.65;;;;;;;-0.44;99.50;102764.03;5051933;28;20049;-47
2022/03/01 03:59:39;;;;;;;22.27;10.43;;;;;;;-0.51;100.00;102778.59;5051964;28;20139;-53
2022/03/01 04:02:08;;;;;;;15.60;8.43;;;;;;;-0.46;100.00;102770.03;5052032;28;20061;-54
2022/03/01 04:04:37;;;;;;;21.73;10.00;;;;;;;-0.53;100.00;102769.97;5051638;28;20045;-46
2022/03/01 04:07:06;;;;;;;21.33;10.48;;;;;;;-0.53;100.00;102771.69;5051539;28;20045;-44
2022/03/01 04:09:34;;;;;;;20.25;9.93;;;;;;;-0.54;100.00;102773.41;5050669;28;20044;-43
2022/03/01 04:12:03;;;;;;;21.42;10.73;;;;;;;-0.54;100.00;102765.66;5048129;28;20040;-46
2022/03/01 04:14:31;;;;;;;19.52;9.93;;;;;;;-0.49;100.00;102764.84;5049524;28;20107;-44
2022/03/01 04:17:04;;;;;;;20.83;10.68;;;;;;;-0.51;100.00;102776.00;5051393;28;20458;-54
2022/03/01 04:19:34;;;;;;;20.98;10.50;;;;;;;-0.47;100.00;102761.41;5055352;28;20052;-44
2022/03/01 04:22:04;;;;;;;20.15;10.10;;;;;;;-0.45;100.00;102764.00;5055795;28;20057;-54
2022/03/01 04:24:32;;;;;;;20.38;10.48;;;;;;;-0.48;100.00;102767.44;5054315;28;20049;-53
2022/03/01 04:27:00;;;;;;;20.58;11.23;;;;;;;-0.43;100.00;102764.91;5054077;28;20049;-54
2022/03/01 04:29:28;;;;;;;20.48;10.50;;;;;;;-0.35;100.00;102765.88;5055152;28;20056;-45
2022/03/01 04:31:56;;;;;;;19.60;10.77;;;;;;;-0.35;100.00;102771.03;5053468;28;20408;-54
2022/03/01 04:34:26;;;;;;;19.02;10.27;;;;;;;-0.35;100.00;102771.91;5051179;28;20136;-53
2022/03/01 04:36:54;;;;;;;18.70;10.23;;;;;;;-0.31;100.00;102769.34;5052779;28;20423;-53
2022/03/01 04:39:22;;;;;;;19.25;10.40;;;;;;;-0.28;100.00;102767.66;5055381;28;20045;-55
2022/03/01 04:41:50;;;;;;;20.67;10.65;;;;;;;-0.29;100.00;102772.81;5052797;28;20123;-55
2022/03/01 04:44:18;;;;;;;17.85;9.60;;;;;;;-0.30;100.00;102771.09;5051975;28;20049;-54
2022/03/01 04:46:48;;;;;;;21.88;11.05;;;;;;;-0.33;100.00;102768.47;5055307;28;20562;-45
2022/03/01 04:49:16;;;;;;;19.77;10.38;;;;;;;-0.36;100.00;102767.56;5055542;28;20111;-45
2022/03/01 04:51:46;;;;;;;18.52;9.82;;;;;;;-0.29;100.00;102772.81;5055383;28;20381;-45
2022/03/01 04:54:14;;;;;;;21.15;10.77;;;;;;;-0.37;100.00;102767.56;5055222;28;20037;-45
2022/03/01 04:56:42;;;;;;;20.63;10.23;;;;;;;-0.41;100.00;102776.13;5055043;28;20068;-45
2022/03/01 04:59:10;;;;;;;20.83;10.52;;;;;;;-0.40;100.00;102778.72;5055086;28;20496;-54
2022/03/01 05:01:39;;;;;;;18.05;10.18;;;;;;;-0.37;100.00;102785.66;5055108;28;20049;-53
2022/03/01 05:04:09;;;;;;;20.23;9.80;;;;;;;-0.30;100.00;102779.72;5053000;28;20049;-44
2022/03/01 05:06:37;;;;;;;16.55;9.10;;;;;;;-0.31;100.00;102772.81;5051983;28;20366;-43
2022/03/01 05:09:07;;;;;;;19.42;10.30;;;;;;;-0.38;100.00;102771.00;5054176;28;20069;-46
2022/03/01 05:11:35;;;;;;;18.55;9.48;;;;;;;-0.40;100.00;102773.56;5054930;28;20053;-45
2022/03/01 05:14:04;;;;;;;22.92;10.18;;;;;;;-0.40;100.00;102755.47;5054694;28;20052;-43
2022/03/01 05:16:34;;;;;;;17.27;9.48;;;;;;;-0.39;100.00;102761.50;5054680;28;20124;-47
2022/03/01 05:19:02;;;;;;;22.30;10.15;;;;;;;-0.44;100.00;102758.84;5054758;28;20155;-44
2022/03/01 05:21:31;;;;;;;21.83;11.65;;;;;;;-0.46;100.00;102757.09;5054530;28;20079;-42
2022/03/01 05:23:59;;;;;;;24.05;10.90;;;;;;;-0.46;100.00;102758.00;5051055;28;20559;-46
2022/03/01 05:26:28;;;;;;;22.50;10.95;;;;;;;-0.44;100.00;102756.28;5051694;28;20053;-43
2022/03/01 05:28:57;;;;;;;20.35;10.00;;;;;;;-0.39;100.00;102756.34;5052435;28;20115;-54
2022/03/01 05:31:26;;;;;;;19.67;10.40;;;;;;;-0.30;100.00;102756.44;5050105;28;20053;-54
2022/03/01 05:33:54;;;;;;;18.10;10.48;;;;;;;-0.35;100.00;102751.22;5052850;28;20052;-54
2022/03/01 05:36:22;;;;;;;18.27;10.13;;;;;;;-0.32;100.00;102752.97;5053949;28;20111;-47
2022/03/01 05:38:51;;;;;;;24.02;11.90;;;;;;;-0.37;100.00;102749.47;5054239;28;20124;-52
2022/03/01 05:41:20;;;;;;;22.85;11.15;;;;;;;-0.36;100.00;102746.88;5054011;28;20392;-50
2022/03/01 05:43:49;;;;;;;21.50;10.93;;;;;;;-0.40;100.00;102749.44;5054057;28;20047;-53
2022/03/01 05:46:17;;;;;;;23.60;11.82;;;;;;;-0.42;100.00;102745.97;5050314;28;20564;-51
2022/03/01 05:48:46;;;;;;;21.17;10.90;;;;;;;-0.35;100.00;102740.00;5049398;28;20059;-45
2022/03/01 05:51:15;;;;;;;20.30;10.30;;;;;;;-0.39;100.00;102735.66;5053420;28;20106;-53
2022/03/01 05:53:43;;;;;;;21.70;11.48;;;;;;;-0.40;100.00;102739.09;5051215;28;20484;-55
2022/03/01 05:56:12;;;;;;;23.33;11.50;;;;;;;-0.42;100.00;102731.31;5050460;28;20051;-42
2022/03/01 05:58:40;;;;;;;25.42;11.45;;;;;;;-0.46;100.00;102734.72;5051787;28;20095;-47
2022/03/01 06:01:09;;;;;;;20.27;11.43;;;;;;;-0.45;99.90;102736.47;5049409;28;20053;-43
2022/03/01 06:03:37;;;;;;;23.23;11.25;;;;;;;-0.46;99.70;102723.50;5053559;28;20052;-42
2022/03/01 06:06:06;;;;;;;24.90;12.35;;;;;;;-0.49;99.44;102723.47;5053768;28;20068;-53
2022/03/01 06:08:34;;;;;;;24.25;12.25;;;;;;;-0.49;99.98;102733.81;5053601;28;20427;-52
2022/03/01 06:11:05;;;;;;;21.02;11.00;;;;;;;-0.51;100.00;102738.97;5052480;28;20053;-53
2022/03/01 06:13:33;;;;;;;19.90;11.68;;;;;;;-0.48;100.00;102736.41;5054069;28;20095;-50
2022/03/01 06:16:01;;;;;;;23.75;11.85;;;;;;;-0.42;100.00;102738.22;5053465;28;20542;-44
2022/03/01 06:18:31;;;;;;;23.08;12.65;;;;;;;-0.45;100.00;102731.28;5053561;28;20049;-52
2022/03/01 06:21:01;;;;;;;26.23;12.00;;;;;;;-0.44;100.00;102732.16;5053570;28;20056;-53
2022/03/01 06:23:31;;;;;;;22.40;11.55;;;;;;;-0.41;100.00;102735.66;5053560;28;20142;-46
2022/03/01 06:25:59;;;;;;;20.10;12.27;;;;;;;-0.41;100.00;102734.75;5053391;28;20051;-45
2022/03/01 06:28:27;;;;;;;24.33;11.80;;;;;;;-0.39;100.00;102736.50;5053600;28;20037;-44
2022/03/01 06:30:55;;;;;;;23.67;11.27;;;;;;;-0.36;100.00;102733.94;5053553;28;20048;-44
2022/03/01 06:33:24;;;;;;;23.23;11.95;;;;;;;-0.39;100.00;102740.81;5053570;28;20056;-44
2022/03/01 06:35:53;;;;;;;21.42;11.77;;;;;;;-0.37;100.00;102739.13;5053397;28;20557;-44
2022/03/01 06:38:21;;;;;;;21.83;10.85;;;;;;;-0.33;100.00;102750.38;5053495;28;20040;-45
2022/03/01 06:40:51;;;;;;;21.65;11.32;;;;;;;-0.31;100.00;102746.94;5052462;28;20103;-44
2022/03/01 06:43:19;;;;;;;21.25;11.13;;;;;;;-0.35;100.00;102756.38;5052013;28;20511;-44
2022/03/01 06:45:48;;;;;;;22.95;11.82;;;;;;;-0.29;100.00;102758.16;5053204;28;20523;-45
2022/03/01 06:48:16;;;;;;;22.70;11.68;;;;;;;-0.29;100.00;102759.91;5052978;28;20067;-45
2022/03/01 06:50:44;;;;;;;22.52;11.43;;;;;;;-0.31;100.00;102762.47;5053136;28;20496;-43
2022/03/01 06:53:17;;;;;;;21.25;11.27;;;;;;;-0.26;100.00;102768.56;5053079;28;20045;-44
2022/03/01 06:55:46;;;;;;;22.15;11.20;;;;;;;-0.23;100.00;102768.59;5052825;28;20063;-44
2022/03/01 06:58:16;;;;;;;21.17;10.95;;;;;;;-0.24;100.00;102771.16;5053159;28;20613;-46
2022/03/01 07:00:45;;;;;;;24.40;11.35;;;;;;;-0.22;100.00;102783.25;5052767;28;20037;-43
2022/03/01 07:03:13;;;;;;;21.05;11.70;;;;;;;-0.20;100.00;102783.28;5052938;28;20060;-46
2022/03/01 07:05:42;;;;;;;27.95;12.82;;;;;;;-0.17;100.00;102788.47;5052632;28;20075;-46
2022/03/01 07:08:10;;;;;;;24.55;12.30;;;;;;;-0.10;100.00;102800.63;5052528;28;20155;-45
2022/03/01 07:10:41;;;;;;;23.95;12.00;;;;;;;-0.10;100.00;102785.09;5052695;28;20106;-45
2022/03/01 07:13:09;;;;;;;23.00;12.73;;;;;;;-0.10;100.00;102786.81;5052907;28;20479;-54
2022/03/01 07:15:38;;;;;;;26.45;12.35;;;;;;;-0.08;100.00;102785.09;5052497;28;20044;-55
2022/03/01 07:18:06;;;;;;;21.88;11.85;;;;;;;0.01;100.00;102794.69;5052826;28;20492;-55
2022/03/01 07:20:35;;;;;;;21.90;11.77;;;;;;;0.09;100.00;102787.88;5052389;28;20045;-55
2022/03/01 07:23:04;;;;;;;22.40;12.25;;;;;;;0.07;100.00;102793.03;5052465;28;20068;-56
2022/03/01 07:25:32;;;;;;;24.50;13.02;;;;;;;0.14;100.00;102789.66;5052493;28;20079;-56
2022/03/01 07:28:02;;;;;;;23.25;12.25;;;;;;;0.19;100.00;102796.59;5052462;28;20049;-55
2022/03/01 07:30:31;;;;;;;23.67;12.55;;;;;;;0.23;100.00;102794.06;5050886;28;20045;-48
2022/03/01 07:33:01;;;;;;;22.52;12.18;;;;;;;0.29;100.00;102796.69;5052204;28;20044;-44
2022/03/01 07:35:30;;;;;;;21.35;11.77;;;;;;;0.37;100.00;102796.78;5052404;28;20071;-45
2022/03/01 07:37:58;;;;;;;23.23;12.07;;;;;;;0.58;100.00;102800.38;5051087;28;20049;-46
2022/03/01 07:40:27;;;;;;;21.98;11.70;;;;;;;0.71;100.00;102810.00;5052120;28;20038;-45
2022/03/01 07:42:56;;;;;;;24.40;12.50;;;;;;;0.91;100.00;102814.44;5052217;28;20051;-48
2022/03/01 07:45:25;;;;;;;24.92;12.73;;;;;;;1.14;99.24;102815.44;5052016;28;20041;-43
2022/03/01 07:47:54;;;;;;;21.92;12.25;;;;;;;1.16;98.61;102811.13;5052127;28;20056;-46
2022/03/01 07:50:22;;;;;;;23.35;12.07;;;;;;;1.39;97.92;102815.59;5052003;28;20040;-44
2022/03/01 07:52:51;;;;;;;20.73;12.25;;;;;;;1.55;97.73;102813.06;5051550;28;20052;-45
2022/03/01 07:55:20;;;;;;;24.27;13.60;;;;;;;1.53;96.80;102815.66;5052219;28;20075;-43
2022/03/01 07:57:51;;;;;;;24.50;12.27;;;;;;;1.55;95.39;102819.09;5052142;28;20049;-44
2022/03/01 08:00:19;;;;;;;22.58;10.95;;;;;;;1.69;93.92;102811.34;5052091;28;20040;-44
2022/03/01 08:02:49;;;;;;;26.60;13.10;;;;;;;1.79;93.68;102807.94;5052084;28;20056;-47
2022/03/01 08:05:17;;;;;;;24.23;13.00;;;;;;;1.78;93.66;102814.00;5051678;28;20080;-43
2022/03/01 08:07:49;;;;;;;22.50;12.57;;;;;;;1.79;91.91;102810.53;5052045;28;20143;-47
2022/03/01 08:10:17;;;;;;;21.05;11.40;;;;;;;1.90;90.15;102815.75;5051952;28;20041;-46
2022/03/01 08:12:45;;;;;;;19.33;11.07;;;;;;;1.89;89.92;102820.94;5051879;28;20060;-45
2022/03/01 08:15:13;;;;;;;20.58;11.43;;;;;;;1.97;88.81;102822.69;5051805;28;20052;-44
2022/03/01 08:17:51;;;;;;;23.92;12.48;;;;;;;2.02;89.70;102809.75;5051768;28;20045;-44
2022/03/01 08:20:19;;;;;;;21.10;11.15;;;;;;;2.12;86.06;102797.66;5052033;28;20049;-45
2022/03/01 08:22:47;;;;;;;19.35;10.90;;;;;;;2.19;85.87;102807.16;5051994;28;20049;-45
2022/03/01 08:25:16;;;;;;;19.05;10.68;;;;;;;2.24;84.78;102825.38;5051748;28;20041;-47
2022/03/01 08:27:44;;;;;;;21.05;10.95;;;;;;;2.22;85.79;102814.09;5051658;28;20040;-44
2022/03/01 08:30:13;;;;;;;18.48;10.75;;;;;;;2.23;85.32;102821.03;5051936;28;20060;-45
2022/03/01 08:32:41;;;;;;;21.27;10.82;;;;;;;2.28;85.48;102824.50;5051551;28;20048;-56
2022/03/01 08:35:11;;;;;;;19.38;11.38;;;;;;;2.33;85.46;102820.16;5051811;28;20049;-54
2022/03/01 08:37:39;;;;;;;17.95;9.30;;;;;;;2.39;84.48;102814.97;5051736;28;20053;-56
2022/03/01 08:40:08;;;;;;;18.75;10.55;;;;;;;2.54;84.16;102801.13;5051824;28;20045;-50
2022/03/01 08:42:36;;;;;;;18.48;9.57;;;;;;;2.64;82.16;102812.38;5051851;28;20045;-53
2022/03/01 08:45:05;;;;;;;17.35;9.57;;;;;;;2.75;81.25;102814.97;5051854;28;20080;-57
2022/03/01 08:47:40;;;;;;;17.73;9.13;;;;;;;2.76;81.73;102821.91;5051685;28;20049;-45
2022/03/01 08:50:09;;;;;;;19.73;9.43;;;;;;;2.81;81.60;102818.44;5051726;28;20048;-46
2022/03/01 08:52:59;;;;;;;17.40;8.45;;;;;;;3.01;78.71;102821.00;5051799;28;20138;-46
2022/03/01 08:55:28;;;;;;;16.15;9.18;;;;;;;3.09;77.41;102820.13;5051527;28;20052;-56
2022/03/01 08:57:56;;;;;;;18.35;8.40;;;;;;;3.12;79.08;102821.00;5051661;28;20106;-46
2022/03/01 09:00:27;;;;;;;16.42;8.40;;;;;;;3.14;79.41;102824.44;5051464;28;20052;-45
2022/03/01 09:02:56;;;;;;;18.95;9.88;;;;;;;3.21;79.42;102826.16;5051142;28;20077;-55
2022/03/01 09:05:25;;;;;;;18.08;9.73;;;;;;;3.27;80.43;102827.00;5054520;28;20047;-52
2022/03/01 09:07:53;;;;;;;14.95;8.48;;;;;;;3.32;79.70;102820.91;5054825;28;20052;-55
2022/03/01 09:10:23;;;;;;;17.55;9.20;;;;;;;3.48;79.25;102821.75;5055078;28;20041;-56
2022/03/01 09:12:52;;;;;;;17.73;9.40;;;;;;;3.68;76.32;102825.97;5053797;28;20508;-47
2022/03/01 09:15:22;;;;;;;17.50;8.70;;;;;;;3.68;75.75;102837.28;5054974;28;20426;-44
2022/03/01 09:17:52;;;;;;;16.20;8.20;;;;;;;3.73;75.69;102837.25;5054911;28;20060;-56
2022/03/01 09:20:20;;;;;;;17.80;8.85;;;;;;;3.71;75.57;102841.59;5054984;28;20114;-56
2022/03/01 09:22:48;;;;;;;15.95;8.70;;;;;;;3.78;75.47;102835.50;5055207;28;20488;-56
2022/03/01 09:25:16;;;;;;;17.77;9.48;;;;;;;3.95;75.61;102834.53;5054903;28;20049;-44
2022/03/01 09:27:46;;;;;;;16.23;8.48;;;;;;;4.09;75.89;102830.13;5054736;28;20056;-45
2022/03/01 09:30:14;;;;;;;15.52;8.65;;;;;;;4.19;75.49;102837.00;5054709;28;20037;-55
2022/03/01 09:32:43;;;;;;;15.30;8.98;;;;;;;4.44;73.36;102843.78;5054809;28;20041;-44
2022/03/01 09:35:11;;;;;;;17.35;9.35;;;;;;;4.76;72.38;102837.41;5054663;28;20049;-46
2022/03/01 09:37:41;;;;;;;16.20;8.75;;;;;;;5.07;70.72;102838.88;5054517;28;20048;-57
2022/03/01 09:40:11;;;;;;;15.38;9.07;;;;;;;5.33;68.96;102832.50;5053555;28;20055;-57
2022/03/01 09:42:40;;;;;;;15.48;8.40;;;;;;;5.46;67.84;102845.41;5054765;28;20381;-56
2022/03/01 09:45:11;;;;;;;16.35;9.07;;;;;;;5.59;67.32;102840.03;5054736;28;20080;-55
2022/03/01 09:47:40;;;;;;;15.00;8.88;;;;;;;5.57;66.79;102839.16;5054387;28;20362;-45
2022/03/01 09:50:10;;;;;;;20.00;9.02;;;;;;;5.64;65.81;102844.31;5054291;28;20053;-42
2022/03/01 09:52:39;;;;;;;17.27;9.15;;;;;;;5.67;65.56;102839.06;5054515;28;20041;-47
2022/03/01 09:55:08;;;;;;;15.32;8.15;;;;;;;5.75;64.99;102837.22;5054345;28;20041;-56
2022/03/01 09:57:37;;;;;;;16.80;8.93;;;;;;;5.69;65.22;102827.72;5054212;28;20077;-55
2022/03/01 10:00:08;;;;;;;14.20;8.07;;;;;;;5.72;65.62;102826.81;5054365;28;20056;-56
2022/03/01 10:02:41;;;;;;;14.95;8.50;;;;;;;5.75;65.35;102826.78;5054399;28;20048;-57
2022/03/01 10:05:10;;;;;;;16.63;8.10;;;;;;;5.87;65.87;102826.59;5054255;28;20053;-56
2022/03/01 10:07:43;;;;;;;14.90;8.73;;;;;;;5.96;65.35;102823.00;5054021;28;20052;-53
2022/03/01 10:10:16;;;;;;;;;;;;;;;6.21;66.53;102828.75;5069809;28;20053;-55
2022/03/01 10:12:45;;;;;;;17.98;9.18;;;;;;;6.49;65.09;102835.31;5052875;28;19921;-55
2022/03/01 10:15:14;;;;;;;13.95;7.93;;;;;;;6.69;62.99;102832.38;5053371;28;20095;-55
2022/03/01 10:17:45;;;;;;;16.88;9.00;;;;;;;6.98;61.65;102834.47;5053768;28;20053;-53
2022/03/01 10:20:16;;;;;;;16.08;9.13;;;;;;;7.26;61.33;102834.78;5054046;28;20468;-55
2022/03/01 10:22:45;;;;;;;15.63;8.68;;;;;;;7.47;60.66;102839.66;5053941;28;20045;-55
2022/03/01 10:25:16;;;;;;;15.77;8.77;;;;;;;7.75;59.22;102832.94;5053669;28;20052;-54
2022/03/01 10:27:45;;;;;;;14.57;9.20;;;;;;;7.99;57.65;102829.81;5053596;28;20053;-54
2022/03/01 10:30:22;;;;;;;14.40;8.13;;;;;;;8.42;57.11;102824.41;5053584;28;20052;-54
2022/03/01 10:32:52;;;;;;;16.27;9.30;;;;;;;8.72;54.82;102821.09;5053493;28;20049;-55
2022/03/01 10:35:20;;;;;;;16.05;8.68;;;;;;;9.12;54.37;102826.16;5052076;28;20049;-56
2022/03/01 10:37:50;;;;;;;16.52;8.02;;;;;;;9.35;53.34;102829.88;5052878;28;20068;-51
2022/03/01 10:40:21;;;;;;;14.15;8.05;;;;;;;9.21;51.91;102832.91;5052871;28;20048;-53
2022/03/01 10:43:00;;;;;;;14.27;8.30;;;;;;;9.46;53.13;102819.94;5052853;28;20083;-52
2022/03/01 10:45:33;;;;;;;13.68;8.45;;;;;;;9.48;53.04;102817.28;5053060;28;20069;-53
2022/03/01 10:48:04;;;;;;;14.55;8.30;;;;;;;9.50;52.12;102825.97;5053156;28;20095;-52
2022/03/01 10:50:32;;;;;;;15.00;8.45;;;;;;;9.39;51.73;102822.78;5053076;28;20411;-57
2022/03/01 10:53:00;;;;;;;15.88;8.82;;;;;;;9.41;52.46;102826.25;5053136;28;20040;-57
2022/03/01 10:55:30;;;;;;;16.60;9.80;;;;;;;9.59;51.62;102825.69;5052967;28;20407;-57
2022/03/01 10:58:00;;;;;;;15.80;8.40;;;;;;;9.81;51.69;102825.91;5052991;28;20048;-57
2022/03/01 11:00:28;;;;;;;14.05;8.80;;;;;;;9.89;50.61;102820.44;5052835;28;20048;-54
2022/03/01 11:02:57;;;;;;;15.95;9.52;;;;;;;10.01;51.94;102819.19;5052785;28;20044;-51
2022/03/01 11:05:29;;;;;;;16.45;9.20;;;;;;;9.89;50.44;102814.31;5052914;28;20060;-52
2022/03/01 11:08:19;;;;;;;13.83;8.30;;;;;;;9.65;51.12;102814.13;5051595;28;20431;-53
2022/03/01 11:10:49;;;;;;;16.27;8.80;;;;;;;9.69;51.41;102809.66;5052620;28;20049;-53
2022/03/01 11:13:20;;;;;;;15.70;8.50;;;;;;;9.77;50.70;102805.88;5052895;28;20073;-49
2022/03/01 11:16:14;;;;;;;17.00;9.38;;;;;;;9.81;50.01;102804.03;5052850;28;20041;-54
2022/03/01 11:18:57;;;;;;;16.50;8.90;;;;;;;9.90;50.33;102811.63;5052614;28;20045;-53
2022/03/01 11:21:28;;;;;;;14.50;8.30;;;;;;;9.97;50.84;102815.78;5052577;28;20056;-53
2022/03/01 11:23:57;;;;;;;15.43;9.25;;;;;;;9.82;50.04;102813.66;5052376;28;20049;-51